York Airport

About
Name: York Airport
Identifier:  THV/KTHV
Local Time:  19. Aug 21:12 EDT
Location
Flights per Day
0 flights
Distance: 126km (78mi)
Punctuality
0% (0 flights per day delayed)
Delay Average: 14 minutes
Current Weather
 26 C (Humidity: 78%)
  0kt (0km/h / 0mph) from 0°
  16km (10 mi.)
 
 METAR KTHV 192353Z AUTO 00000KT 10SM CLR 26/22 A3001 RMK AO2 SLP160 T02610217 10333 20261 53007

Current Flights

Departures
Number Departure To Airline
Arrivals
Number Arrival From Airline

Current Delays

Departures
N/A
Arrivals
N/A

Destinations

Top Destinations
Airport Flights
per week
Seats
per week
  Harrisburg () 1 - 0 0
  Frederick (FDK) 1 - 0 0
  Caldwell (CDW) 0 - 0 0
  Milwaukee (MKE) 0 - 0 0
  Ocean City (OCE) 0 - 0 0
  Schenectady (SCH) 0 - 0 0
  Latrobe (LBE) 0 - 0 0
  Farmingdale (FRG) 0 - 0 0
  Washington (WSG) 0 - 0 0
  Annapolis (ANP) 0 - 0 0

Airlines & Planes

Top Airlines
Airline Flights
per Day
Seats
per Day
Jet Charter Inc ( Franklin Lakes Nj ) 0 -
Nordwind Airlines 0 -
  Nolinor Aviation 0 -
  National Airlines 0 -
  Flybe Nordic 0 -
  Novair 0 -
NetJets 0 -
Top Plane Types
Model Flights Seats
Piper PA-46-350P Malibu Mirage 0.2/day - 0
Cessna C750 0.2/day - 0
Piper PA28-181 0.1/day - 0
Piper PA-32R-301T Saratoga II 0.1/day - 0
Cessna C172 0.1/day - 0
Beech E90 King Air 0.1/day - 0
Pilatus PC-12 0.1/day - 0
Beech 58 0.1/day - 0
Piper PA28R-201T Turbo Arrow IV 0.1/day - 0
Cessna C182 0.1/day - 0
Piper PA-31-350 0.1/day - 0